createdAt,value
2019-05-10T09:29:46.514Z,96198.42
2019-05-10T09:32:14.800Z,96209.98
2019-05-10T09:34:43.119Z,96206.69
2019-05-10T09:37:14.319Z,96206.36
2019-05-10T09:39:42.390Z,96192.55
2019-05-10T09:42:24.875Z,96209.42
2019-05-10T09:44:41.099Z,96204.19
2019-05-10T09:47:09.447Z,96202.67
2019-05-10T09:49:37.752Z,96203.16
2019-05-10T15:30:55.069Z,96233.95
2019-05-10T15:33:23.447Z,96239.33
2019-05-10T15:35:53.891Z,96236.98
2019-05-10T15:38:21.841Z,96232.10
2019-05-10T15:40:50.250Z,96228.39
2019-05-10T15:43:20.102Z,96225.16
2019-05-10T15:45:52.566Z,96224.83
2019-05-10T15:48:18.720Z,96229.53
2019-05-10T15:50:47.123Z,96229.02
2019-05-10T15:53:19.418Z,96220.48
2019-05-10T15:55:45.502Z,96218.98
2019-05-10T15:58:13.886Z,96206.70
2019-05-10T16:00:42.238Z,96206.90
2019-05-10T16:03:10.573Z,96202.52
2019-05-10T16:05:43.609Z,96206.88
2019-05-10T16:08:08.996Z,96206.88
2019-05-10T16:10:39.560Z,96215.81
2019-05-10T16:13:07.463Z,96210.24
2019-05-10T16:15:35.797Z,96212.09
2019-05-10T16:18:04.540Z,96216.30
2019-05-10T16:20:37.277Z,96216.14
2019-05-10T16:23:08.345Z,96210.92
2019-05-10T16:25:41.122Z,96201.86
2019-05-10T16:28:03.216Z,96198.82
2019-05-10T16:30:31.501Z,96202.02
2019-05-10T16:32:59.873Z,96202.53
2019-05-10T16:35:38.421Z,96202.70
2019-05-10T16:37:58.276Z,96211.43
2019-05-10T16:40:26.570Z,96205.03
2019-05-10T16:42:55.158Z,96196.13
2019-05-10T16:45:23.441Z,96195.97
2019-05-10T16:47:51.834Z,96209.06
2019-05-10T16:50:20.289Z,96208.06
2019-05-10T16:52:48.624Z,96194.46
2019-05-10T16:55:16.999Z,96204.03
2019-05-10T16:57:45.344Z,96203.02
2019-05-10T17:00:14.077Z,96210.91
2019-05-10T17:02:43.929Z,96211.27
2019-05-10T17:05:15.214Z,96216.48
2019-05-10T17:07:42.551Z,96208.89
2019-05-10T17:10:11.152Z,96207.91
2019-05-10T17:12:39.483Z,96210.08
2019-05-10T17:15:08.836Z,96204.70
2019-05-10T17:17:39.169Z,96207.39
2019-05-10T17:20:14.171Z,96214.47
2019-05-10T17:22:38.605Z,96208.06
2019-05-10T17:25:11.927Z,96207.91
2019-05-10T17:27:40.251Z,96206.88
2019-05-10T17:30:08.922Z,96200.67
2019-05-10T17:32:37.220Z,96203.36
2019-05-10T17:35:07.486Z,96195.30
2019-05-10T17:37:37.422Z,96191.77
2019-05-10T17:40:10.170Z,96197.47
